View Single Post
Old 14th Mar 2017, 15:14
  #27 (permalink)  
Apate
 
Join Date: Mar 2016
Location: N of 49th parallel
Posts: 121
Weather reports are difficult to come by, but Shannon reports 24 hours. It is not on the coast and some distance away, but does offer some indication of the kind of weather that might have been experienced:

METAR EINN 140430Z 25014KT 6000 -DZ SCT005 BKN007 11/11 Q1029
TEMPO 3000 BKN005=
Apate is offline